Time;durP1;ratioP1;P1;durP2;ratioP2;P2;SDS_P1;SDS_P2;PMS_P1;PMS_P2;Temp;Humidity;BMP_temperature;BMP_pressure;BME280_temperature;BME280_humidity;BME280_pressure;Samples;Min_cycle;Max_cycle;Signal;HPM_P1;HPM_P2
2022/10/31 00:01:19;;;;;;;13.17;7.80;;;12.30;1.00;;;;;;5069018;28;20432;-71
2022/10/31 00:03:44;;;;;;;15.43;7.33;;;12.30;1.60;;;;;;5061273;28;20472;-74
2022/10/31 00:06:10;;;;;;;15.73;7.20;;;12.30;1.00;;;;;;5069215;28;20850;-74
2022/10/31 00:08:36;;;;;;;15.80;7.43;;;12.30;1.10;;;;;;5066520;28;20176;-74
2022/10/31 00:11:01;;;;;;;9.43;6.50;;;12.20;1.00;;;;;;5073270;28;20270;-73
2022/10/31 00:13:27;;;;;;;11.93;7.53;;;12.20;1.00;;;;;;5068657;28;20188;-73
2022/10/31 00:15:52;;;;;;;13.53;6.93;;;12.20;1.00;;;;;;5069724;28;20241;-75
2022/10/31 00:18:18;;;;;;;16.47;6.80;;;12.20;1.40;;;;;;5066607;28;20175;-73
2022/10/31 00:20:43;;;;;;;10.63;7.30;;;12.20;1.00;;;;;;5068911;28;20168;-73
2022/10/31 00:23:10;;;;;;;11.07;6.73;;;12.10;2.20;;;;;;5062323;28;20235;-74
2022/10/31 00:25:38;;;;;;;19.00;7.70;;;12.10;1.00;;;;;;5069030;28;20173;-73
2022/10/31 00:28:05;;;;;;;13.67;7.10;;;12.10;1.00;;;;;;5056558;28;20960;-74
2022/10/31 00:30:31;;;;;;;14.40;6.70;;;12.10;1.00;;;;;;5069443;28;20411;-74
2022/10/31 00:32:56;;;;;;;10.43;6.73;;;12.10;1.00;;;;;;5064037;28;20553;-73
2022/10/31 00:35:22;;;;;;;13.23;7.53;;;12.10;1.00;;;;;;5068154;28;20482;-74
2022/10/31 00:37:47;;;;;;;9.30;6.50;;;12.10;1.00;;;;;;5068240;28;20276;-75
2022/10/31 00:40:13;;;;;;;11.00;6.73;;;12.10;1.60;;;;;;5060938;28;20169;-73
2022/10/31 00:42:41;;;;;;;13.60;6.83;;;12.10;1.00;;;;;;5068316;28;20607;-73
2022/10/31 00:45:08;;;;;;;10.20;6.73;;;12.10;1.00;;;;;;5067388;28;20632;-73
2022/10/31 00:47:33;;;;;;;13.40;6.60;;;12.10;1.00;;;;;;5059460;28;20495;-73
2022/10/31 00:49:58;;;;;;;10.00;6.33;;;12.10;1.40;;;;;;5068274;28;21001;-74
2022/10/31 00:52:24;;;;;;;9.67;6.30;;;12.10;1.00;;;;;;5064740;28;20224;-74
2022/10/31 00:54:50;;;;;;;13.53;6.90;;;12.00;1.00;;;;;;5068457;28;20193;-74
2022/10/31 00:57:15;;;;;;;10.80;6.70;;;12.00;1.00;;;;;;5065048;28;20169;-74
2022/10/31 00:59:41;;;;;;;13.07;6.27;;;11.90;3.20;;;;;;5069253;28;20172;-75
2022/10/31 01:02:06;;;;;;;11.53;6.80;;;11.90;4.30;;;;;;5065162;28;20223;-75
2022/10/31 01:04:32;;;;;;;13.73;6.23;;;11.80;4.30;;;;;;5063270;28;20674;-73
2022/10/31 01:06:58;;;;;;;15.33;7.37;;;12.00;6.70;;;;;;5065729;28;20212;-74
2022/10/31 01:09:23;;;;;;;8.67;6.30;;;11.80;7.10;;;;;;5063601;28;20177;-75
2022/10/31 01:11:49;;;;;;;14.17;6.33;;;11.80;7.90;;;;;;5076361;28;20433;-74
2022/10/31 01:14:14;;;;;;;16.57;6.30;;;11.80;8.40;;;;;;5082405;28;20179;-74
2022/10/31 01:16:40;;;;;;;12.07;6.70;;;11.80;5.30;;;;;;5071818;28;20179;-75
2022/10/31 01:19:05;;;;;;;12.73;6.43;;;11.80;2.50;;;;;;5068054;28;20190;-74
2022/10/31 01:21:31;;;;;;;12.07;5.70;;;11.70;4.80;;;;;;5064268;28;20572;-74
2022/10/31 01:23:57;;;;;;;16.80;6.50;;;11.70;6.30;;;;;;5064702;28;20184;-74
2022/10/31 01:26:25;;;;;;;10.93;6.40;;;11.70;5.00;;;;;;5065633;28;20164;-75
2022/10/31 01:28:55;;;;;;;10.63;6.10;;;11.70;2.50;;;;;;5068734;28;20229;-75
2022/10/31 01:31:23;;;;;;;11.60;6.50;;;11.60;5.20;;;;;;5064193;28;20836;-74
2022/10/31 01:33:49;;;;;;;9.20;6.70;;;11.50;7.40;;;;;;5064305;28;20462;-76
2022/10/31 01:36:23;;;;;;;15.40;7.20;;;11.50;8.70;;;;;;5064548;28;20446;-74
2022/10/31 01:38:49;;;;;;;12.53;6.67;;;11.50;7.20;;;;;;5063947;28;20445;-74
2022/10/31 01:41:17;;;;;;;12.63;6.33;;;11.50;8.00;;;;;;5067276;28;20722;-74
2022/10/31 01:43:58;;;;;;;12.27;6.23;;;11.50;9.40;;;;;;5073461;28;20988;-73
2022/10/31 01:46:38;;;;;;;11.00;6.30;;;11.50;7.10;;;;;;5063325;28;20900;-74
2022/10/31 01:49:14;;;;;;;14.50;7.50;;;11.50;8.90;;;;;;5065701;28;20419;-74
2022/10/31 01:51:49;;;;;;;14.87;6.63;;;11.60;4.50;;;;;;5066638;28;20433;-75
2022/10/31 01:54:19;;;;;;;12.43;6.47;;;11.60;7.00;;;;;;5066383;28;20979;-74
2022/10/31 01:56:49;;;;;;;11.20;6.33;;;11.70;4.10;;;;;;5068270;28;20934;-74
2022/10/31 01:59:17;;;;;;;19.77;6.50;;;11.70;2.20;;;;;;5064170;28;20438;-73
2022/10/31 02:01:43;;;;;;;11.30;6.23;;;11.70;1.00;;;;;;5056037;28;20460;-74
2022/10/31 02:04:09;;;;;;;12.73;5.90;;;11.70;3.80;;;;;;5064971;28;20430;-75
2022/10/31 02:06:45;;;;;;;11.00;7.10;;;11.70;1.00;;;;;;5066463;28;20255;-74
2022/10/31 02:09:12;;;;;;;12.40;6.30;;;11.70;1.00;;;;;;5064799;28;20180;-74
2022/10/31 02:11:38;;;;;;;14.53;6.60;;;11.70;1.00;;;;;;5075324;28;20432;-74
2022/10/31 02:14:03;;;;;;;10.33;6.33;;;11.70;1.00;;;;;;5065592;28;20437;-74
2022/10/31 02:16:29;;;;;;;15.33;6.70;;;11.70;1.00;;;;;;5068136;28;20847;-74
2022/10/31 02:18:55;;;;;;;10.67;7.10;;;11.70;1.00;;;;;;5067060;28;20177;-74
2022/10/31 02:21:58;;;;;;;9.73;5.80;;;11.70;1.00;;;;;;5066775;28;20181;-74
2022/10/31 02:24:44;;;;;;;10.00;6.40;;;11.60;1.00;;;;;;5062838;28;20433;-76
2022/10/31 02:27:51;;;;;;;14.60;6.90;;;11.60;2.60;;;;;;5047193;28;20427;-74
2022/10/31 02:30:22;;;;;;;22.60;7.00;;;11.60;1.50;;;;;;5059336;28;20434;-74
2022/10/31 02:32:58;;;;;;;9.67;5.77;;;11.60;1.00;;;;;;5062136;28;20486;-74
2022/10/31 02:35:38;;;;;;;9.30;5.83;;;11.60;1.30;;;;;;5060586;28;20503;-74
2022/10/31 02:38:24;;;;;;;10.27;6.00;;;11.60;2.20;;;;;;5062573;28;20431;-74
2022/10/31 02:40:59;;;;;;;16.73;6.83;;;11.50;3.10;;;;;;5066970;28;20454;-74
2022/10/31 02:43:40;;;;;;;13.57;6.23;;;11.40;4.70;;;;;;5070725;28;20429;-74
2022/10/31 02:46:27;;;;;;;11.90;6.60;;;11.40;3.90;;;;;;5070404;28;20473;-75
2022/10/31 02:48:57;;;;;;;12.17;6.10;;;11.40;2.60;;;;;;5068954;28;20438;-74
2022/10/31 02:51:23;;;;;;;8.63;5.87;;;11.40;3.40;;;;;;5067514;28;20435;-74
2022/10/31 02:53:48;;;;;;;10.97;6.33;;;11.40;4.00;;;;;;5068620;28;20426;-74
2022/10/31 02:56:16;;;;;;;14.17;6.87;;;11.40;4.00;;;;;;5064092;28;20167;-74
2022/10/31 02:58:50;;;;;;;14.43;6.67;;;11.40;3.60;;;;;;5063995;28;20252;-74
2022/10/31 03:01:54;;;;;;;9.20;5.40;;;11.40;3.10;;;;;;5071243;28;20456;-74
2022/10/31 03:04:45;;;;;;;9.57;5.67;;;11.40;3.00;;;;;;5068210;28;20433;-74
2022/10/31 03:07:16;;;;;;;10.13;5.30;;;11.40;1.60;;;;;;5066310;28;20572;-74
2022/10/31 03:10:06;;;;;;;10.43;6.13;;;11.30;1.00;;;;;;5068535;28;20959;-74
2022/10/31 03:12:39;;;;;;;12.23;6.60;;;11.30;1.00;;;;;;5076165;28;20940;-74
2022/10/31 03:15:34;;;;;;;7.20;5.40;;;11.30;1.80;;;;;;5063345;28;20470;-74
2022/10/31 03:18:06;;;;;;;15.03;6.03;;;11.30;1.40;;;;;;5059300;28;20462;-73
2022/10/31 03:20:39;;;;;;;11.93;5.60;;;11.30;2.70;;;;;;5070319;28;20716;-74
2022/10/31 03:23:09;;;;;;;8.30;5.80;;;11.20;4.50;;;;;;5066629;28;20450;-74
2022/10/31 03:25:36;;;;;;;17.80;5.50;;;11.20;1.30;;;;;;5066488;28;20415;-74
2022/10/31 03:28:04;;;;;;;8.47;5.73;;;11.10;1.00;;;;;;5050678;28;20485;-74
2022/10/31 03:30:33;;;;;;;6.93;5.30;;;11.10;2.20;;;;;;5057291;28;20573;-74
2022/10/31 03:33:01;;;;;;;11.10;5.80;;;11.10;2.40;;;;;;5065890;28;20447;-73
2022/10/31 03:35:28;;;;;;;16.80;6.07;;;11.10;1.00;;;;;;5070015;28;20451;-74
2022/10/31 03:37:55;;;;;;;13.13;6.17;;;11.10;1.00;;;;;;5061774;28;20474;-74
2022/10/31 03:40:25;;;;;;;11.03;5.67;;;11.00;1.10;;;;;;5069250;28;20407;-74
2022/10/31 03:43:07;;;;;;;11.80;6.40;;;11.00;1.00;;;;;;5076333;28;20467;-74
2022/10/31 03:45:37;;;;;;;9.10;5.47;;;11.00;1.00;;;;;;5069854;28;20422;-74
2022/10/31 03:48:03;;;;;;;12.40;5.40;;;10.90;1.00;;;;;;5062787;28;20464;-75
2022/10/31 03:50:45;;;;;;;10.60;5.03;;;10.90;1.00;;;;;;5068817;28;20545;-75
2022/10/31 03:53:20;;;;;;;9.60;5.03;;;10.90;1.00;;;;;;5058917;28;20543;-74
2022/10/31 03:56:00;;;;;;;10.10;5.70;;;10.90;1.00;;;;;;5069584;28;20531;-74
2022/10/31 03:58:32;;;;;;;10.17;5.13;;;10.90;1.00;;;;;;5062178;28;20431;-73
2022/10/31 04:01:01;;;;;;;8.70;5.27;;;10.90;1.00;;;;;;5069532;28;20406;-74
2022/10/31 04:03:30;;;;;;;11.60;6.00;;;10.90;1.00;;;;;;5065345;28;20527;-73
2022/10/31 04:05:59;;;;;;;9.03;5.00;;;10.90;1.00;;;;;;5069268;28;20544;-74
2022/10/31 04:08:29;;;;;;;10.80;5.30;;;10.90;1.00;;;;;;5061077;28;20802;-73
2022/10/31 04:10:57;;;;;;;13.47;6.30;;;10.80;1.00;;;;;;5061004;28;20442;-73
2022/10/31 04:13:27;;;;;;;9.03;5.27;;;10.70;2.50;;;;;;5070652;28;20586;-73
2022/10/31 04:15:55;;;;;;;10.27;5.03;;;10.70;4.40;;;;;;5070831;28;20450;-74
2022/10/31 04:18:22;;;;;;;10.97;5.70;;;10.70;5.40;;;;;;5060441;28;20427;-74
2022/10/31 04:20:50;;;;;;;10.23;5.80;;;10.80;4.60;;;;;;5068759;28;20896;-73
2022/10/31 04:23:23;;;;;;;11.57;6.10;;;10.80;4.30;;;;;;5066992;28;20906;-73
2022/10/31 04:25:49;;;;;;;12.57;5.90;;;10.70;4.70;;;;;;5062312;28;20907;-73
2022/10/31 04:28:14;;;;;;;9.47;5.80;;;10.70;5.40;;;;;;5068180;28;20411;-75
2022/10/31 04:30:40;;;;;;;11.13;5.50;;;10.70;5.20;;;;;;5062810;28;20268;-73
2022/10/31 04:33:06;;;;;;;14.77;5.43;;;10.70;5.30;;;;;;5059161;28;20204;-73
2022/10/31 04:35:31;;;;;;;11.00;5.47;;;10.70;5.60;;;;;;5066373;28;20655;-74
2022/10/31 04:37:57;;;;;;;12.30;6.07;;;10.80;7.30;;;;;;5069215;28;20537;-74
2022/10/31 04:40:22;;;;;;;9.30;6.57;;;10.80;7.80;;;;;;5062240;28;20168;-74
2022/10/31 04:42:48;;;;;;;13.90;7.30;;;10.80;7.60;;;;;;5060918;28;20197;-73
2022/10/31 04:45:13;;;;;;;8.87;5.80;;;10.80;6.50;;;;;;5069949;28;20176;-74
2022/10/31 04:47:39;;;;;;;12.40;6.20;;;10.80;7.90;;;;;;5067864;28;20271;-73
2022/10/31 04:50:05;;;;;;;12.00;6.60;;;10.80;6.60;;;;;;5069257;28;20202;-74
2022/10/31 04:52:30;;;;;;;11.40;7.00;;;10.70;9.00;;;;;;5059839;28;20200;-75
2022/10/31 04:54:56;;;;;;;12.23;7.70;;;10.70;8.80;;;;;;5068301;28;20659;-74
2022/10/31 04:57:21;;;;;;;16.47;9.93;;;10.70;9.20;;;;;;5057759;28;20181;-73
2022/10/31 04:59:47;;;;;;;20.47;9.53;;;10.60;12.70;;;;;;5068906;28;20221;-74
2022/10/31 05:02:12;;;;;;;19.30;11.07;;;10.60;15.10;;;;;;5066883;28;20250;-74
2022/10/31 05:04:38;;;;;;;20.47;10.40;;;10.60;14.20;;;;;;5066411;28;20249;-74
2022/10/31 05:07:03;;;;;;;16.53;9.23;;;10.60;15.30;;;;;;5063852;28;20195;-73
2022/10/31 05:09:29;;;;;;;15.50;8.23;;;10.60;12.80;;;;;;5064742;28;20682;-74
2022/10/31 05:11:54;;;;;;;13.80;8.23;;;10.50;12.70;;;;;;5076405;28;20295;-74
2022/10/31 05:14:20;;;;;;;15.20;7.40;;;10.50;10.80;;;;;;5075266;28;20184;-74
2022/10/31 05:16:45;;;;;;;15.40;7.33;;;10.50;10.30;;;;;;5060591;28;20203;-73
2022/10/31 05:19:11;;;;;;;12.63;7.93;;;10.50;9.50;;;;;;5068970;28;20179;-73
2022/10/31 05:21:36;;;;;;;10.80;7.00;;;10.40;10.70;;;;;;5065618;28;20628;-73
2022/10/31 05:24:02;;;;;;;17.77;7.83;;;10.30;16.10;;;;;;5067527;28;20189;-75
2022/10/31 05:26:27;;;;;;;12.67;7.27;;;10.40;15.50;;;;;;5068204;28;20184;-73
2022/10/31 05:28:53;;;;;;;9.40;6.30;;;10.40;15.90;;;;;;5067734;28;20177;-73
2022/10/31 05:31:18;;;;;;;23.93;8.30;;;10.50;12.70;;;;;;5066086;28;20277;-73
2022/10/31 05:33:44;;;;;;;15.37;7.27;;;10.50;14.00;;;;;;5063985;28;20601;-73
2022/10/31 05:36:09;;;;;;;10.37;6.53;;;10.50;16.00;;;;;;5067426;28;20620;-73
2022/10/31 05:38:35;;;;;;;14.10;7.33;;;10.60;15.80;;;;;;5065388;28;20175;-73
2022/10/31 05:41:01;;;;;;;11.23;7.00;;;10.60;15.40;;;;;;5072485;28;20632;-74
2022/10/31 05:43:27;;;;;;;11.80;7.03;;;10.60;13.30;;;;;;5081430;28;20229;-73
2022/10/31 05:45:56;;;;;;;13.10;7.20;;;10.50;15.90;;;;;;5089072;28;20225;-73
2022/10/31 05:48:22;;;;;;;11.23;6.60;;;10.50;17.30;;;;;;5065196;28;20431;-74
2022/10/31 05:50:48;;;;;;;13.10;6.90;;;10.50;14.60;;;;;;5067336;28;20857;-73
2022/10/31 05:53:14;;;;;;;13.07;7.00;;;10.50;15.40;;;;;;5063677;28;20193;-73
2022/10/31 05:55:41;;;;;;;11.23;7.67;;;10.50;15.70;;;;;;5069347;28;20774;-73
2022/10/31 05:58:07;;;;;;;11.07;6.40;;;10.50;15.70;;;;;;5061419;28;20632;-74
2022/10/31 06:00:34;;;;;;;10.73;6.67;;;10.50;15.70;;;;;;5060302;28;20443;-73
2022/10/31 06:03:02;;;;;;;12.80;7.73;;;10.50;17.60;;;;;;5057813;28;20539;-75
2022/10/31 06:05:29;;;;;;;11.93;6.90;;;10.50;14.30;;;;;;5067374;28;20421;-73
2022/10/31 06:07:55;;;;;;;12.90;7.17;;;10.50;12.50;;;;;;5065702;28;20434;-74
2022/10/31 06:10:21;;;;;;;14.50;7.10;;;10.50;12.80;;;;;;5066663;28;20758;-74
2022/10/31 06:12:47;;;;;;;11.87;6.70;;;10.50;13.50;;;;;;5078853;28;20453;-74
2022/10/31 06:15:13;;;;;;;11.17;6.17;;;10.50;17.10;;;;;;5071270;28;20196;-73
2022/10/31 06:17:39;;;;;;;11.00;6.83;;;10.50;13.50;;;;;;5069258;28;20411;-73
2022/10/31 06:20:05;;;;;;;9.47;5.80;;;10.50;12.50;;;;;;5072449;28;20496;-73
2022/10/31 06:22:31;;;;;;;11.87;6.53;;;10.60;11.60;;;;;;5069718;28;20271;-73
2022/10/31 06:24:56;;;;;;;10.90;6.43;;;10.50;11.10;;;;;;5072940;28;20414;-73
2022/10/31 06:27:22;;;;;;;12.60;6.53;;;10.60;11.60;;;;;;5068333;28;20172;-74
2022/10/31 06:29:48;;;;;;;9.37;6.23;;;10.70;9.80;;;;;;5071942;28;20458;-74
2022/10/31 06:32:14;;;;;;;11.57;6.70;;;10.80;7.50;;;;;;5068042;28;20451;-73
2022/10/31 06:34:41;;;;;;;11.00;6.33;;;10.70;6.70;;;;;;5069349;28;20287;-73
2022/10/31 06:37:11;;;;;;;14.03;6.73;;;10.80;7.70;;;;;;5065041;28;20840;-73
2022/10/31 06:39:36;;;;;;;10.93;6.20;;;10.90;4.00;;;;;;5065608;28;20423;-74
2022/10/31 06:42:03;;;;;;;7.97;6.37;;;10.90;3.80;;;;;;5069439;28;20797;-75
2022/10/31 06:44:28;;;;;;;14.80;6.90;;;11.00;1.00;;;;;;5072478;28;20655;-75
2022/10/31 06:46:54;;;;;;;11.10;6.43;;;11.10;1.00;;;;;;5066879;28;20434;-76
2022/10/31 06:49:20;;;;;;;13.27;6.70;;;11.20;1.00;;;;;;5067354;28;20214;-74
2022/10/31 06:51:49;;;;;;;14.03;6.70;;;11.40;1.00;;;;;;5068880;28;20451;-73
2022/10/31 06:54:16;;;;;;;11.50;6.97;;;11.40;1.00;;;;;;5065675;28;20602;-74
2022/10/31 06:56:41;;;;;;;14.70;7.40;;;11.60;1.00;;;;;;5070077;28;20411;-74
2022/10/31 06:59:07;;;;;;;17.60;7.40;;;11.70;1.00;;;;;;5072076;28;20405;-74
2022/10/31 07:01:32;;;;;;;12.83;6.60;;;11.90;1.00;;;;;;5070463;28;20188;-76
2022/10/31 07:03:58;;;;;;;12.53;7.47;;;11.90;1.00;;;;;;5064199;28;20184;-74
2022/10/31 07:06:23;;;;;;;16.13;7.33;;;12.10;1.00;;;;;;5068213;28;20195;-74
2022/10/31 07:08:49;;;;;;;13.60;6.57;;;12.20;1.00;;;;;;5072263;28;20210;-74
2022/10/31 07:11:14;;;;;;;15.43;6.57;;;12.40;1.00;;;;;;5073878;28;20175;-75
2022/10/31 07:13:40;;;;;;;12.60;6.50;;;12.50;1.00;;;;;;5068971;28;20196;-75
2022/10/31 07:16:11;;;;;;;14.33;6.93;;;12.60;1.00;;;;;;5063128;28;20208;-72
2022/10/31 07:18:37;;;;;;;11.70;7.90;;;12.70;1.00;;;;;;5064314;28;20180;-74
2022/10/31 07:21:03;;;;;;;17.23;8.20;;;13.70;1.00;;;;;;5070484;28;20415;-74
2022/10/31 07:23:28;;;;;;;11.07;6.10;;;12.80;1.00;;;;;;5061628;28;20849;-76
2022/10/31 07:25:55;;;;;;;14.67;7.23;;;12.90;1.00;;;;;;5062852;28;20445;-75
2022/10/31 07:28:21;;;;;;;18.67;7.30;;;12.90;1.00;;;;;;5075333;28;20779;-75
2022/10/31 07:30:52;;;;;;;13.63;6.73;;;12.90;1.00;;;;;;5066406;28;20430;-76
2022/10/31 07:33:17;;;;;;;9.77;5.70;;;12.60;1.00;;;;;;5066281;28;20465;-75
2022/10/31 07:35:43;;;;;;;12.33;6.83;;;13.10;1.00;;;;;;5060963;28;20455;-75
2022/10/31 07:38:10;;;;;;;19.07;6.37;;;13.10;1.00;;;;;;5061648;28;20212;-75
2022/10/31 07:40:36;;;;;;;16.73;6.70;;;13.20;1.00;;;;;;5070361;28;20164;-77
2022/10/31 07:43:01;;;;;;;10.40;6.10;;;13.30;1.00;;;;;;5062595;28;20817;-75
2022/10/31 07:45:27;;;;;;;15.03;7.20;;;13.40;1.00;;;;;;5062785;28;20259;-77
2022/10/31 07:47:53;;;;;;;14.43;6.90;;;13.60;1.00;;;;;;5063335;28;20176;-75
2022/10/31 07:50:27;;;;;;;10.27;6.40;;;13.70;1.00;;;;;;5070498;28;20185;-75
2022/10/31 07:53:12;;;;;;;10.80;6.57;;;13.80;1.00;;;;;;5062313;28;20208;-76
2022/10/31 07:55:38;;;;;;;13.90;6.30;;;14.00;1.00;;;;;;5069634;28;20454;-77
2022/10/31 07:58:07;;;;;;;11.40;5.93;;;14.10;1.00;;;;;;5057501;28;20576;-77
2022/10/31 08:00:34;;;;;;;13.30;6.40;;;14.40;1.00;;;;;;5054858;28;20495;-76
2022/10/31 08:03:05;;;;;;;9.20;5.70;;;14.50;1.00;;;;;;5060202;28;20450;-75
2022/10/31 08:05:32;;;;;;;10.33;5.97;;;14.50;1.00;;;;;;5060738;28;20775;-76
2022/10/31 08:07:58;;;;;;;12.33;6.37;;;14.70;1.00;;;;;;5077345;28;20430;-74
2022/10/31 08:10:25;;;;;;;10.40;6.10;;;14.80;1.00;;;;;;5076270;28;20419;-74
2022/10/31 08:13:06;;;;;;;14.03;6.90;;;14.90;1.00;;;;;;5081075;28;21086;-75
2022/10/31 08:15:33;;;;;;;11.17;6.80;;;15.00;1.00;;;;;;5069018;28;20809;-74
2022/10/31 08:18:00;;;;;;;8.27;5.83;;;15.10;1.00;;;;;;5069404;28;20419;-74
2022/10/31 08:20:25;;;;;;;12.83;6.90;;;15.30;1.00;;;;;;5059753;28;20438;-75
2022/10/31 08:22:59;;;;;;;9.63;6.07;;;15.40;1.00;;;;;;5076966;28;20888;-74
2022/10/31 08:25:26;;;;;;;11.77;6.77;;;15.60;1.00;;;;;;5091231;28;20535;-75
2022/10/31 08:27:56;;;;;;;14.37;6.13;;;15.70;1.00;;;;;;5075167;28;20506;-75
2022/10/31 08:30:24;;;;;;;10.33;6.33;;;15.90;1.00;;;;;;5062451;28;20431;-76
2022/10/31 08:33:04;;;;;;;11.83;5.70;;;16.00;1.00;;;;;;5062112;28;20560;-74
2022/10/31 08:35:30;;;;;;;11.50;6.63;;;16.30;1.00;;;;;;5060277;28;21062;-75
2022/10/31 08:37:56;;;;;;;12.17;7.03;;;16.60;1.00;;;;;;5068102;28;20481;-75
2022/10/31 08:40:23;;;;;;;8.87;6.63;;;16.80;1.00;;;;;;5069245;28;20794;-75
2022/10/31 08:43:00;;;;;;;15.00;6.70;;;16.90;1.00;;;;;;5071015;28;20478;-76
2022/10/31 08:45:26;;;;;;;11.70;6.80;;;17.00;1.00;;;;;;5072550;28;20449;-75
2022/10/31 08:47:51;;;;;;;8.33;6.90;;;17.30;1.00;;;;;;5068640;28;20506;-77
2022/10/31 08:50:17;;;;;;;15.83;7.37;;;17.70;1.00;;;;;;5056001;28;20473;-75
2022/10/31 08:52:43;;;;;;;13.17;7.47;;;18.50;1.00;;;;;;5058383;28;20303;-75
2022/10/31 08:55:08;;;;;;;16.43;8.07;;;19.20;1.00;;;;;;5055443;28;20885;-75
2022/10/31 08:57:34;;;;;;;14.50;7.90;;;19.70;1.00;;;;;;5058089;28;20191;-75
2022/10/31 08:59:59;;;;;;;17.27;8.40;;;20.20;1.00;;;;;;5056626;28;20181;-77
2022/10/31 09:02:25;;;;;;;21.10;8.20;;;20.80;1.00;;;;;;5054790;28;20200;-75
2022/10/31 09:04:50;;;;;;;16.90;9.00;;;21.40;1.00;;;;;;5073658;28;20262;-75
2022/10/31 09:07:16;;;;;;;15.97;7.43;;;22.10;1.00;;;;;;5067022;28;20176;-75
2022/10/31 09:09:41;;;;;;;12.93;8.47;;;22.80;1.00;;;;;;5067280;28;20542;-75
2022/10/31 09:12:07;;;;;;;14.37;7.07;;;23.60;1.00;;;;;;5067025;28;20188;-75
2022/10/31 09:14:32;;;;;;;12.50;7.30;;;24.00;1.00;;;;;;5067104;28;20631;-74
2022/10/31 09:16:58;;;;;;;12.30;7.00;;;24.90;1.00;;;;;;5069139;28;20646;-76
2022/10/31 09:19:23;;;;;;;12.40;6.83;;;24.90;1.00;;;;;;5069986;28;20172;-76
2022/10/31 09:21:52;;;;;;;20.47;8.10;;;24.90;1.00;;;;;;5067568;28;20200;-76
2022/10/31 09:24:18;;;;;;;11.87;7.07;;;24.80;1.00;;;;;;5060545;28;20172;-76
2022/10/31 09:26:43;;;;;;;16.23;6.83;;;24.50;1.00;;;;;;5066108;28;20781;-76
2022/10/31 09:29:09;;;;;;;11.80;6.73;;;24.40;1.00;;;;;;5059780;28;20186;-76
2022/10/31 09:31:35;;;;;;;13.07;7.50;;;25.00;1.00;;;;;;5058296;28;20187;-76
2022/10/31 09:34:00;;;;;;;13.67;7.30;;;25.00;1.00;;;;;;5067109;28;20541;-76
2022/10/31 09:36:26;;;;;;;12.57;7.60;;;25.20;1.00;;;;;;5065761;28;20227;-77
2022/10/31 09:38:52;;;;;;;12.87;7.53;;;25.20;1.00;;;;;;5061504;28;20171;-76
2022/10/31 09:41:54;;;;;;;13.33;7.90;;;25.40;1.00;;;;;;5073193;28;20202;-77
2022/10/31 09:44:57;;;;;;;13.33;8.03;;;25.40;1.00;;;;;;5067795;28;20779;-76
2022/10/31 09:48:00;;;;;;;14.70;7.00;;;25.20;1.00;;;;;;5066552;28;20441;-77
2022/10/31 09:50:38;;;;;;;10.80;6.77;;;25.40;1.00;;;;;;5065177;28;20480;-75
2022/10/31 09:53:15;;;;;;;14.33;7.40;;;25.60;1.00;;;;;;5064582;28;20427;-76
2022/10/31 09:55:44;;;;;;;12.63;7.60;;;26.10;1.00;;;;;;5067812;28;20461;-76
2022/10/31 09:58:17;;;;;;;14.33;7.40;;;26.30;1.00;;;;;;5069033;28;20645;-75
2022/10/31 10:00:44;;;;;;;12.87;7.23;;;26.80;1.00;;;;;;5076338;28;20418;-76
2022/10/31 10:03:45;;;;;;;13.17;8.20;;;27.50;1.00;;;;;;5073506;28;20430;-76
2022/10/31 10:06:19;;;;;;;15.10;8.47;;;27.40;1.00;;;;;;5065501;28;20508;-75
2022/10/31 10:08:44;;;;;;;15.60;9.20;;;27.90;1.00;;;;;;5071070;28;20734;-76
2022/10/31 10:11:47;;;;;;;16.70;9.40;;;28.00;1.00;;;;;;5075971;28;20183;-77
2022/10/31 10:14:29;;;;;;;15.33;9.57;;;28.00;1.00;;;;;;5064730;28;20542;-76
2022/10/31 10:17:35;;;;;;;14.03;9.37;;;27.60;1.00;;;;;;5063757;28;20176;-76
2022/10/31 10:20:21;;;;;;;18.43;9.73;;;27.70;1.00;;;;;;5055917;28;20338;-76
2022/10/31 10:23:23;;;;;;;16.27;9.80;;;27.70;1.00;;;;;;5060791;28;20192;-77
2022/10/31 10:25:58;;;;;;;17.70;10.17;;;27.20;1.00;;;;;;5058843;28;20183;-76
2022/10/31 10:28:28;;;;;;;19.07;10.67;;;26.80;1.00;;;;;;5056719;28;20176;-76
2022/10/31 10:31:09;;;;;;;18.43;10.40;;;26.40;1.00;;;;;;5062130;28;20466;-75
2022/10/31 10:33:43;;;;;;;19.13;10.70;;;26.60;1.00;;;;;;5063798;28;20441;-77
2022/10/31 10:36:16;;;;;;;18.20;11.43;;;27.30;1.00;;;;;;5068761;28;20206;-76
2022/10/31 10:38:48;;;;;;;21.10;10.47;;;27.90;1.00;;;;;;5066277;28;20186;-77
2022/10/31 10:41:17;;;;;;;19.93;11.03;;;27.60;1.00;;;;;;5070459;28;20176;-77
2022/10/31 10:43:43;;;;;;;20.40;11.50;;;27.10;1.00;;;;;;5083624;28;20191;-76
2022/10/31 10:49:17;;;;;;;17.97;12.40;;;26.00;1.00;;;;;;5071946;28;20237;-75
2022/10/31 10:52:00;;;;;;;21.23;12.30;;;25.60;1.00;;;;;;5072185;28;20441;-75
2022/10/31 10:55:10;;;;;;;20.03;13.83;;;25.30;1.00;;;;;;5070934;28;20949;-75
2022/10/31 10:57:49;;;;;;;19.87;13.07;;;24.70;1.00;;;;;;5063106;28;20409;-75
2022/10/31 11:00:24;;;;;;;19.50;13.00;;;24.10;1.00;;;;;;5064873;28;20430;-78
2022/10/31 11:02:50;;;;;;;21.50;13.30;;;24.00;1.00;;;;;;5063096;28;20481;-76
2022/10/31 11:05:34;;;;;;;20.47;14.23;;;23.90;1.00;;;;;;5060696;28;20441;-76
2022/10/31 11:07:59;;;;;;;21.70;15.00;;;24.00;1.00;;;;;;5052331;28;20427;-77
2022/10/31 11:10:26;;;;;;;22.30;15.27;;;23.70;1.00;;;;;;5066874;28;20505;-77
2022/10/31 11:13:05;;;;;;;25.47;16.27;;;23.30;1.00;;;;;;5054532;28;20748;-76
2022/10/31 11:15:36;;;;;;;21.50;15.20;;;23.10;1.00;;;;;;5069082;28;20461;-76
2022/10/31 11:18:02;;;;;;;26.53;16.23;;;22.80;1.00;;;;;;5058019;28;20426;-78
2022/10/31 11:20:35;;;;;;;22.13;15.97;;;22.90;1.00;;;;;;5071744;28;20906;-76
2022/10/31 11:23:18;;;;;;;21.40;14.70;;;22.90;1.00;;;;;;5063342;28;20195;-76
2022/10/31 11:26:18;;;;;;;25.60;16.10;;;23.10;1.00;;;;;;5070231;28;20444;-76
2022/10/31 11:28:55;;;;;;;22.30;15.80;;;22.90;1.00;;;;;;5062378;28;20848;-76
2022/10/31 11:31:21;;;;;;;29.07;15.87;;;22.60;1.00;;;;;;5066022;28;20468;-76
2022/10/31 11:33:50;;;;;;;27.97;16.50;;;22.60;1.00;;;;;;5061894;28;20466;-76
2022/10/31 11:36:24;;;;;;;21.23;16.00;;;22.60;1.00;;;;;;5065152;28;20184;-77
2022/10/31 11:38:51;;;;;;;24.67;16.80;;;22.40;1.00;;;;;;5059366;28;20442;-76
2022/10/31 11:41:19;;;;;;;25.83;16.10;;;22.40;1.00;;;;;;5062379;28;20419;-75
2022/10/31 11:43:56;;;;;;;26.20;17.10;;;22.40;1.00;;;;;;5064616;28;20496;-75
2022/10/31 11:46:41;;;;;;;28.27;15.97;;;22.40;1.00;;;;;;5058176;28;20917;-76
2022/10/31 11:49:28;;;;;;;22.87;15.20;;;22.60;1.00;;;;;;5058000;28;20495;-75
2022/10/31 11:51:57;;;;;;;29.70;16.30;;;23.00;1.00;;;;;;5084479;28;20985;-76
2022/10/31 11:54:26;;;;;;;20.80;14.97;;;23.20;1.00;;;;;;5085523;28;20414;-75
2022/10/31 11:56:52;;;;;;;27.60;17.17;;;23.10;1.00;;;;;;5074002;28;20444;-75
2022/10/31 11:59:27;;;;;;;25.20;15.83;;;23.00;1.00;;;;;;5079085;28;20407;-76
2022/10/31 12:01:55;;;;;;;27.17;16.50;;;23.00;1.00;;;;;;5069319;28;20677;-75
2022/10/31 12:04:43;;;;;;;22.60;14.80;;;23.10;1.00;;;;;;5090972;28;20412;-76
2022/10/31 12:07:09;;;;;;;18.37;12.90;;;23.60;1.00;;;;;;5071842;28;20460;-76
2022/10/31 12:09:36;;;;;;;31.40;15.13;;;23.60;1.00;;;;;;5086572;28;20775;-76
2022/10/31 12:12:35;;;;;;;21.63;14.87;;;23.60;1.00;;;;;;5083186;28;20259;-76
2022/10/31 12:15:20;;;;;;;24.80;14.03;;;23.20;1.00;;;;;;5061384;28;20472;-76
2022/10/31 12:18:08;;;;;;;27.33;15.73;;;22.90;1.00;;;;;;5087131;28;20420;-76
2022/10/31 12:21:04;;;;;;;26.60;14.37;;;22.40;1.00;;;;;;5090964;28;20507;-76
2022/10/31 12:23:45;;;;;;;24.00;14.10;;;22.10;1.00;;;;;;5083900;28;20938;-75
2022/10/31 12:26:19;;;;;;;23.80;14.20;;;21.90;1.00;;;;;;5051023;28;20426;-76
2022/10/31 12:29:02;;;;;;;18.30;13.70;;;21.70;1.00;;;;;;5054512;28;20485;-77
2022/10/31 12:31:39;;;;;;;23.30;13.80;;;21.60;1.00;;;;;;5061723;28;20457;-76
2022/10/31 12:34:29;;;;;;;24.80;14.20;;;21.60;1.00;;;;;;5051219;28;20493;-76
2022/10/31 12:37:15;;;;;;;25.30;13.80;;;21.60;1.00;;;;;;5050417;28;20412;-76
2022/10/31 12:40:10;;;;;;;21.57;13.80;;;21.60;1.00;;;;;;5077251;28;20413;-77
2022/10/31 12:43:07;;;;;;;19.93;12.57;;;21.30;1.00;;;;;;5073732;28;20774;-76
2022/10/31 12:45:53;;;;;;;24.83;12.80;;;21.20;1.00;;;;;;5074950;28;20422;-75
2022/10/31 12:49:00;;;;;;;17.30;12.90;;;21.00;1.00;;;;;;5083331;28;20409;-76
2022/10/31 12:51:57;;;;;;;22.93;12.97;;;21.00;1.00;;;;;;5066780;28;20501;-76
2022/10/31 12:54:43;;;;;;;21.90;13.10;;;20.90;1.00;;;;;;5074597;28;20948;-76
2022/10/31 12:57:14;;;;;;;26.73;13.50;;;20.90;1.00;;;;;;5050860;28;20430;-76
2022/10/31 12:59:45;;;;;;;25.73;14.30;;;21.00;1.00;;;;;;5063766;28;20952;-76
2022/10/31 13:02:38;;;;;;;24.63;13.40;;;21.20;1.00;;;;;;5050343;28;20440;-76
2022/10/31 13:05:20;;;;;;;21.07;12.87;;;21.60;1.00;;;;;;5063946;28;20776;-77
2022/10/31 13:08:03;;;;;;;26.00;15.90;;;22.00;1.00;;;;;;5068205;28;20414;-76
2022/10/31 13:10:45;;;;;;;27.87;15.60;;;22.30;1.00;;;;;;5070827;28;20769;-77